sensor_id;sensor_type;location;lat;lon;timestamp;temperature;humidity
32348;DHT22;18821;44.800;10.326;2022-09-24T00:01:16;14.90;99.90
32348;DHT22;18821;44.800;10.326;2022-09-24T00:03:44;14.90;99.90
32348;DHT22;18821;44.800;10.326;2022-09-24T00:06:15;14.90;99.90
32348;DHT22;18821;44.800;10.326;2022-09-24T00:08:48;14.90;99.90
32348;DHT22;18821;44.800;10.326;2022-09-24T00:11:15;15.00;99.90
32348;DHT22;18821;44.800;10.326;2022-09-24T00:13:42;14.90;99.90
32348;DHT22;18821;44.800;10.326;2022-09-24T00:16:10;15.00;99.90
32348;DHT22;18821;44.800;10.326;2022-09-24T00:18:37;14.90;99.90
32348;DHT22;18821;44.800;10.326;2022-09-24T00:21:17;14.90;99.90
32348;DHT22;18821;44.800;10.326;2022-09-24T00:23:47;14.80;99.90
32348;DHT22;18821;44.800;10.326;2022-09-24T00:26:13;14.80;99.90
32348;DHT22;18821;44.800;10.326;2022-09-24T00:28:58;14.80;99.90
32348;DHT22;18821;44.800;10.326;2022-09-24T00:31:25;14.80;99.90
32348;DHT22;18821;44.800;10.326;2022-09-24T00:33:52;14.80;99.90
32348;DHT22;18821;44.800;10.326;2022-09-24T00:36:19;14.80;99.90
32348;DHT22;18821;44.800;10.326;2022-09-24T00:38:48;14.80;99.90
32348;DHT22;18821;44.800;10.326;2022-09-24T00:41:16;14.80;99.90
32348;DHT22;18821;44.800;10.326;2022-09-24T00:43:43;14.90;99.90
32348;DHT22;18821;44.800;10.326;2022-09-24T00:48:56;15.00;99.90
32348;DHT22;18821;44.800;10.326;2022-09-24T00:51:24;15.00;99.90
32348;DHT22;18821;44.800;10.326;2022-09-24T00:53:55;15.00;99.90
32348;DHT22;18821;44.800;10.326;2022-09-24T00:56:22;15.00;99.90
32348;DHT22;18821;44.800;10.326;2022-09-24T00:58:50;15.10;99.90
32348;DHT22;18821;44.800;10.326;2022-09-24T01:01:18;15.10;99.90
32348;DHT22;18821;44.800;10.326;2022-09-24T01:03:46;15.20;99.90
32348;DHT22;18821;44.800;10.326;2022-09-24T01:06:13;15.20;99.90
32348;DHT22;18821;44.800;10.326;2022-09-24T01:08:39;15.20;99.90
32348;DHT22;18821;44.800;10.326;2022-09-24T01:16:44;15.30;99.90
32348;DHT22;18821;44.800;10.326;2022-09-24T01:25:29;15.40;99.90
32348;DHT22;18821;44.800;10.326;2022-09-24T01:28:21;15.50;99.90
32348;DHT22;18821;44.800;10.326;2022-09-24T01:30:57;15.50;99.90
32348;DHT22;18821;44.800;10.326;2022-09-24T01:33:27;15.40;99.90
32348;DHT22;18821;44.800;10.326;2022-09-24T01:35:58;15.40;99.90
32348;DHT22;18821;44.800;10.326;2022-09-24T01:38:28;15.50;99.90
32348;DHT22;18821;44.800;10.326;2022-09-24T01:40:58;15.40;99.90
32348;DHT22;18821;44.800;10.326;2022-09-24T01:43:26;15.40;99.90
32348;DHT22;18821;44.800;10.326;2022-09-24T01:45:55;15.40;99.90
32348;DHT22;18821;44.800;10.326;2022-09-24T01:48:24;15.40;99.90
32348;DHT22;18821;44.800;10.326;2022-09-24T01:51:13;15.30;99.90
32348;DHT22;18821;44.800;10.326;2022-09-24T01:54:08;15.30;99.90
32348;DHT22;18821;44.800;10.326;2022-09-24T01:56:40;15.30;99.90
32348;DHT22;18821;44.800;10.326;2022-09-24T02:01:59;15.30;99.90
32348;DHT22;18821;44.800;10.326;2022-09-24T02:04:27;15.30;99.90
32348;DHT22;18821;44.800;10.326;2022-09-24T02:06:59;15.30;99.90
32348;DHT22;18821;44.800;10.326;2022-09-24T02:09:38;15.30;99.90
32348;DHT22;18821;44.800;10.326;2022-09-24T02:12:15;15.30;99.90
32348;DHT22;18821;44.800;10.326;2022-09-24T02:15:00;15.20;99.90
32348;DHT22;18821;44.800;10.326;2022-09-24T02:17:29;15.30;99.90
32348;DHT22;18821;44.800;10.326;2022-09-24T02:19:59;15.30;99.90
32348;DHT22;18821;44.800;10.326;2022-09-24T02:22:25;15.30;99.90
32348;DHT22;18821;44.800;10.326;2022-09-24T02:24:55;15.30;99.90
32348;DHT22;18821;44.800;10.326;2022-09-24T02:27:24;15.30;99.90
32348;DHT22;18821;44.800;10.326;2022-09-24T02:29:51;15.30;99.90
32348;DHT22;18821;44.800;10.326;2022-09-24T02:32:18;15.30;99.90
32348;DHT22;18821;44.800;10.326;2022-09-24T02:34:47;15.30;99.90
32348;DHT22;18821;44.800;10.326;2022-09-24T02:37:15;15.30;99.90
32348;DHT22;18821;44.800;10.326;2022-09-24T02:39:42;15.30;99.90
32348;DHT22;18821;44.800;10.326;2022-09-24T02:42:09;15.30;99.90
32348;DHT22;18821;44.800;10.326;2022-09-24T02:44:36;15.30;99.90
32348;DHT22;18821;44.800;10.326;2022-09-24T02:47:03;15.30;99.90
32348;DHT22;18821;44.800;10.326;2022-09-24T02:49:29;15.40;99.90
32348;DHT22;18821;44.800;10.326;2022-09-24T02:51:55;15.40;99.90
32348;DHT22;18821;44.800;10.326;2022-09-24T02:54:21;15.40;99.90
32348;DHT22;18821;44.800;10.326;2022-09-24T02:56:48;15.40;99.90
32348;DHT22;18821;44.800;10.326;2022-09-24T02:59:14;15.40;99.90
32348;DHT22;18821;44.800;10.326;2022-09-24T03:01:40;15.40;99.90
32348;DHT22;18821;44.800;10.326;2022-09-24T03:04:06;15.40;99.90
32348;DHT22;18821;44.800;10.326;2022-09-24T03:06:32;15.40;99.90
32348;DHT22;18821;44.800;10.326;2022-09-24T03:08:58;15.40;99.90
32348;DHT22;18821;44.800;10.326;2022-09-24T03:11:27;15.50;99.90
32348;DHT22;18821;44.800;10.326;2022-09-24T03:13:53;15.50;99.90
32348;DHT22;18821;44.800;10.326;2022-09-24T03:16:19;15.50;99.90
32348;DHT22;18821;44.800;10.326;2022-09-24T03:18:46;15.50;99.90
32348;DHT22;18821;44.800;10.326;2022-09-24T03:21:14;15.50;99.90
32348;DHT22;18821;44.800;10.326;2022-09-24T03:23:41;15.50;99.90
32348;DHT22;18821;44.800;10.326;2022-09-24T03:26:07;15.50;99.90
32348;DHT22;18821;44.800;10.326;2022-09-24T03:28:33;15.50;99.90
32348;DHT22;18821;44.800;10.326;2022-09-24T03:30:59;15.50;99.90
32348;DHT22;18821;44.800;10.326;2022-09-24T03:33:32;15.50;99.90
32348;DHT22;18821;44.800;10.326;2022-09-24T03:36:04;15.50;99.90
32348;DHT22;18821;44.800;10.326;2022-09-24T03:38:31;15.40;99.90
32348;DHT22;18821;44.800;10.326;2022-09-24T03:40:57;15.50;99.90
32348;DHT22;18821;44.800;10.326;2022-09-24T03:43:23;15.40;99.90
32348;DHT22;18821;44.800;10.326;2022-09-24T03:45:49;15.40;99.90
32348;DHT22;18821;44.800;10.326;2022-09-24T03:48:17;15.30;99.90
32348;DHT22;18821;44.800;10.326;2022-09-24T03:50:43;15.30;99.90
32348;DHT22;18821;44.800;10.326;2022-09-24T03:53:11;15.30;99.90
32348;DHT22;18821;44.800;10.326;2022-09-24T03:55:45;15.20;99.90
32348;DHT22;18821;44.800;10.326;2022-09-24T03:58:12;15.20;99.90
32348;DHT22;18821;44.800;10.326;2022-09-24T04:00:38;15.20;99.90
32348;DHT22;18821;44.800;10.326;2022-09-24T04:03:04;15.20;99.90
32348;DHT22;18821;44.800;10.326;2022-09-24T04:05:31;15.10;99.90
32348;DHT22;18821;44.800;10.326;2022-09-24T04:07:58;15.10;99.90
32348;DHT22;18821;44.800;10.326;2022-09-24T04:10:24;15.10;99.90
32348;DHT22;18821;44.800;10.326;2022-09-24T04:12:51;15.10;99.90
32348;DHT22;18821;44.800;10.326;2022-09-24T04:15:17;15.00;99.90
32348;DHT22;18821;44.800;10.326;2022-09-24T04:17:54;15.00;99.90
32348;DHT22;18821;44.800;10.326;2022-09-24T04:20:21;14.90;99.90
32348;DHT22;18821;44.800;10.326;2022-09-24T04:22:54;14.90;99.90
32348;DHT22;18821;44.800;10.326;2022-09-24T04:25:21;14.90;99.90
32348;DHT22;18821;44.800;10.326;2022-09-24T04:27:56;14.80;99.90
32348;DHT22;18821;44.800;10.326;2022-09-24T04:30:23;14.80;99.90
32348;DHT22;18821;44.800;10.326;2022-09-24T04:32:50;14.80;99.90
32348;DHT22;18821;44.800;10.326;2022-09-24T04:35:21;14.80;99.90
32348;DHT22;18821;44.800;10.326;2022-09-24T04:37:48;14.80;99.90
32348;DHT22;18821;44.800;10.326;2022-09-24T04:40:15;14.80;99.90
32348;DHT22;18821;44.800;10.326;2022-09-24T04:42:42;14.70;99.90
32348;DHT22;18821;44.800;10.326;2022-09-24T04:45:12;14.70;99.90
32348;DHT22;18821;44.800;10.326;2022-09-24T04:47:38;14.60;99.90
32348;DHT22;18821;44.800;10.326;2022-09-24T04:50:08;14.60;99.90
32348;DHT22;18821;44.800;10.326;2022-09-24T04:52:36;14.60;99.90
32348;DHT22;18821;44.800;10.326;2022-09-24T04:55:03;14.50;99.90
32348;DHT22;18821;44.800;10.326;2022-09-24T04:57:29;14.50;99.90
32348;DHT22;18821;44.800;10.326;2022-09-24T04:59:59;14.50;99.90
32348;DHT22;18821;44.800;10.326;2022-09-24T05:02:25;14.50;99.90
32348;DHT22;18821;44.800;10.326;2022-09-24T05:04:51;14.50;99.90
32348;DHT22;18821;44.800;10.326;2022-09-24T05:07:17;14.40;99.90
32348;DHT22;18821;44.800;10.326;2022-09-24T05:09:43;14.30;99.90
32348;DHT22;18821;44.800;10.326;2022-09-24T05:12:09;14.30;99.90
32348;DHT22;18821;44.800;10.326;2022-09-24T05:14:35;14.30;99.90
32348;DHT22;18821;44.800;10.326;2022-09-24T05:17:01;14.30;99.90
32348;DHT22;18821;44.800;10.326;2022-09-24T05:19:27;14.30;99.90
32348;DHT22;18821;44.800;10.326;2022-09-24T05:21:53;14.30;99.90
32348;DHT22;18821;44.800;10.326;2022-09-24T05:24:19;14.20;99.90
32348;DHT22;18821;44.800;10.326;2022-09-24T05:26:45;14.30;99.90
32348;DHT22;18821;44.800;10.326;2022-09-24T05:29:29;14.30;99.90
32348;DHT22;18821;44.800;10.326;2022-09-24T05:31:55;14.30;99.90
32348;DHT22;18821;44.800;10.326;2022-09-24T05:34:21;14.40;99.90
32348;DHT22;18821;44.800;10.326;2022-09-24T05:36:47;14.40;99.90
32348;DHT22;18821;44.800;10.326;2022-09-24T05:39:13;14.40;99.90
32348;DHT22;18821;44.800;10.326;2022-09-24T05:41:39;14.50;99.90
32348;DHT22;18821;44.800;10.326;2022-09-24T05:44:05;14.60;99.90
32348;DHT22;18821;44.800;10.326;2022-09-24T05:46:31;14.70;99.90
32348;DHT22;18821;44.800;10.326;2022-09-24T05:48:58;14.70;99.90
32348;DHT22;18821;44.800;10.326;2022-09-24T05:51:24;14.80;99.90
32348;DHT22;18821;44.800;10.326;2022-09-24T05:53:50;14.80;99.90
32348;DHT22;18821;44.800;10.326;2022-09-24T05:56:16;14.80;99.90
32348;DHT22;18821;44.800;10.326;2022-09-24T05:58:42;14.80;99.90
32348;DHT22;18821;44.800;10.326;2022-09-24T06:01:08;14.90;99.90
32348;DHT22;18821;44.800;10.326;2022-09-24T06:03:34;14.90;99.90
32348;DHT22;18821;44.800;10.326;2022-09-24T06:06:00;14.90;99.90
32348;DHT22;18821;44.800;10.326;2022-09-24T06:08:30;14.90;99.90
32348;DHT22;18821;44.800;10.326;2022-09-24T06:11:01;14.90;99.90
32348;DHT22;18821;44.800;10.326;2022-09-24T06:13:27;15.00;99.90
32348;DHT22;18821;44.800;10.326;2022-09-24T06:16:02;15.00;99.90
32348;DHT22;18821;44.800;10.326;2022-09-24T06:18:28;15.10;99.90
32348;DHT22;18821;44.800;10.326;2022-09-24T06:20:54;15.10;99.90
32348;DHT22;18821;44.800;10.326;2022-09-24T06:23:20;15.10;99.90
32348;DHT22;18821;44.800;10.326;2022-09-24T06:25:49;15.20;99.90
32348;DHT22;18821;44.800;10.326;2022-09-24T06:28:18;15.20;99.90
32348;DHT22;18821;44.800;10.326;2022-09-24T06:30:44;15.30;99.90
32348;DHT22;18821;44.800;10.326;2022-09-24T06:33:11;15.40;99.90
32348;DHT22;18821;44.800;10.326;2022-09-24T06:35:39;15.40;99.90
32348;DHT22;18821;44.800;10.326;2022-09-24T06:38:07;15.40;99.90
32348;DHT22;18821;44.800;10.326;2022-09-24T06:40:34;15.40;99.90
32348;DHT22;18821;44.800;10.326;2022-09-24T06:43:00;15.40;99.90
32348;DHT22;18821;44.800;10.326;2022-09-24T06:45:26;15.50;99.90
32348;DHT22;18821;44.800;10.326;2022-09-24T06:47:53;15.50;99.90
32348;DHT22;18821;44.800;10.326;2022-09-24T06:50:20;15.60;99.90
32348;DHT22;18821;44.800;10.326;2022-09-24T06:52:47;15.70;99.90
32348;DHT22;18821;44.800;10.326;2022-09-24T06:55:13;15.80;99.90
32348;DHT22;18821;44.800;10.326;2022-09-24T06:57:39;15.80;99.90
32348;DHT22;18821;44.800;10.326;2022-09-24T07:00:06;15.90;99.90
32348;DHT22;18821;44.800;10.326;2022-09-24T07:02:32;15.80;99.90
32348;DHT22;18821;44.800;10.326;2022-09-24T07:04:58;15.90;99.90
32348;DHT22;18821;44.800;10.326;2022-09-24T07:07:24;15.90;99.90
32348;DHT22;18821;44.800;10.326;2022-09-24T07:10:05;16.00;99.90
32348;DHT22;18821;44.800;10.326;2022-09-24T07:12:33;16.10;99.90
32348;DHT22;18821;44.800;10.326;2022-09-24T07:14:59;16.20;99.90
32348;DHT22;18821;44.800;10.326;2022-09-24T07:17:25;16.20;99.90
32348;DHT22;18821;44.800;10.326;2022-09-24T07:19:52;16.30;99.90
32348;DHT22;18821;44.800;10.326;2022-09-24T07:22:19;16.30;99.90
32348;DHT22;18821;44.800;10.326;2022-09-24T07:24:45;16.30;99.90
32348;DHT22;18821;44.800;10.326;2022-09-24T07:27:12;16.30;99.90
32348;DHT22;18821;44.800;10.326;2022-09-24T07:29:38;16.30;99.90
32348;DHT22;18821;44.800;10.326;2022-09-24T07:32:05;16.40;99.90
32348;DHT22;18821;44.800;10.326;2022-09-24T07:34:32;16.40;99.90
32348;DHT22;18821;44.800;10.326;2022-09-24T07:36:58;16.40;99.90
32348;DHT22;18821;44.800;10.326;2022-09-24T07:39:24;16.50;99.90
32348;DHT22;18821;44.800;10.326;2022-09-24T07:41:51;16.50;99.90
32348;DHT22;18821;44.800;10.326;2022-09-24T07:44:18;16.60;99.90
32348;DHT22;18821;44.800;10.326;2022-09-24T07:47:09;16.70;99.90
32348;DHT22;18821;44.800;10.326;2022-09-24T07:49:40;16.80;99.90
32348;DHT22;18821;44.800;10.326;2022-09-24T07:52:07;16.80;99.90
32348;DHT22;18821;44.800;10.326;2022-09-24T07:54:33;16.80;99.90
32348;DHT22;18821;44.800;10.326;2022-09-24T07:56:59;16.70;99.90
32348;DHT22;18821;44.800;10.326;2022-09-24T07:59:25;16.80;99.90
32348;DHT22;18821;44.800;10.326;2022-09-24T08:01:51;16.80;99.90
32348;DHT22;18821;44.800;10.326;2022-09-24T08:04:17;16.90;99.90
32348;DHT22;18821;44.800;10.326;2022-09-24T08:06:43;16.90;99.90
32348;DHT22;18821;44.800;10.326;2022-09-24T08:09:08;16.90;99.90
32348;DHT22;18821;44.800;10.326;2022-09-24T08:11:34;17.00;99.90
32348;DHT22;18821;44.800;10.326;2022-09-24T08:14:00;17.10;99.90
32348;DHT22;18821;44.800;10.326;2022-09-24T08:16:26;17.20;99.90
32348;DHT22;18821;44.800;10.326;2022-09-24T08:18:53;17.30;99.90
32348;DHT22;18821;44.800;10.326;2022-09-24T08:21:19;17.40;99.90
32348;DHT22;18821;44.800;10.326;2022-09-24T08:23:45;17.40;99.90
32348;DHT22;18821;44.800;10.326;2022-09-24T08:26:12;17.50;99.90
32348;DHT22;18821;44.800;10.326;2022-09-24T08:28:40;17.50;99.90
32348;DHT22;18821;44.800;10.326;2022-09-24T08:31:11;17.50;99.90
32348;DHT22;18821;44.800;10.326;2022-09-24T08:33:38;17.50;99.90
32348;DHT22;18821;44.800;10.326;2022-09-24T08:36:07;17.50;99.90
32348;DHT22;18821;44.800;10.326;2022-09-24T08:38:33;17.50;99.90
32348;DHT22;18821;44.800;10.326;2022-09-24T08:41:22;17.50;99.90
32348;DHT22;18821;44.800;10.326;2022-09-24T08:46:42;17.50;99.90
32348;DHT22;18821;44.800;10.326;2022-09-24T08:49:54;17.50;99.90
32348;DHT22;18821;44.800;10.326;2022-09-24T08:55:16;17.50;99.90
32348;DHT22;18821;44.800;10.326;2022-09-24T09:03:42;17.70;99.90
32348;DHT22;18821;44.800;10.326;2022-09-24T09:06:40;17.60;99.90
32348;DHT22;18821;44.800;10.326;2022-09-24T09:12:02;17.70;99.90
32348;DHT22;18821;44.800;10.326;2022-09-24T09:14:39;17.90;99.90
32348;DHT22;18821;44.800;10.326;2022-09-24T09:19:55;18.00;99.90
32348;DHT22;18821;44.800;10.326;2022-09-24T09:22:30;18.00;99.90
32348;DHT22;18821;44.800;10.326;2022-09-24T09:25:08;18.00;99.90
32348;DHT22;18821;44.800;10.326;2022-09-24T09:27:37;17.90;99.90
32348;DHT22;18821;44.800;10.326;2022-09-24T09:30:05;18.00;99.90
32348;DHT22;18821;44.800;10.326;2022-09-24T09:33:01;18.00;99.90
32348;DHT22;18821;44.800;10.326;2022-09-24T09:35:51;18.10;99.90
32348;DHT22;18821;44.800;10.326;2022-09-24T09:38:41;18.00;99.90
32348;DHT22;18821;44.800;10.326;2022-09-24T09:41:30;18.00;99.90
32348;DHT22;18821;44.800;10.326;2022-09-24T09:44:08;18.00;99.90
32348;DHT22;18821;44.800;10.326;2022-09-24T09:46:40;17.90;99.90
32348;DHT22;18821;44.800;10.326;2022-09-24T09:49:08;18.00;99.90
32348;DHT22;18821;44.800;10.326;2022-09-24T09:51:40;18.00;99.90
32348;DHT22;18821;44.800;10.326;2022-09-24T09:54:06;18.00;99.90
32348;DHT22;18821;44.800;10.326;2022-09-24T09:56:44;17.90;99.90
32348;DHT22;18821;44.800;10.326;2022-09-24T10:01:42;17.90;99.90
32348;DHT22;18821;44.800;10.326;2022-09-24T10:04:35;17.90;99.90
32348;DHT22;18821;44.800;10.326;2022-09-24T10:07:03;17.80;99.90
32348;DHT22;18821;44.800;10.326;2022-09-24T10:09:30;17.80;99.90
32348;DHT22;18821;44.800;10.326;2022-09-24T10:12:17;17.70;99.90
32348;DHT22;18821;44.800;10.326;2022-09-24T10:14:43;17.70;99.90
32348;DHT22;18821;44.800;10.326;2022-09-24T10:17:16;17.70;99.90
32348;DHT22;18821;44.800;10.326;2022-09-24T10:19:43;17.70;99.90
32348;DHT22;18821;44.800;10.326;2022-09-24T10:22:21;17.60;99.90
32348;DHT22;18821;44.800;10.326;2022-09-24T10:24:49;17.60;99.90
32348;DHT22;18821;44.800;10.326;2022-09-24T10:29:55;17.60;99.90
32348;DHT22;18821;44.800;10.326;2022-09-24T10:32:40;17.60;99.90
32348;DHT22;18821;44.800;10.326;2022-09-24T10:35:28;17.40;99.90
32348;DHT22;18821;44.800;10.326;2022-09-24T10:37:57;17.20;99.90
32348;DHT22;18821;44.800;10.326;2022-09-24T10:40:26;17.20;99.90
32348;DHT22;18821;44.800;10.326;2022-09-24T10:43:03;17.20;99.90
32348;DHT22;18821;44.800;10.326;2022-09-24T10:51:02;17.10;99.90
32348;DHT22;18821;44.800;10.326;2022-09-24T11:07:47;17.30;99.90
32348;DHT22;18821;44.800;10.326;2022-09-24T11:31:12;17.70;99.90
32348;DHT22;18821;44.800;10.326;2022-09-24T11:37:24;18.00;99.90
32348;DHT22;18821;44.800;10.326;2022-09-24T11:43:03;17.80;99.90
32348;DHT22;18821;44.800;10.326;2022-09-24T11:56:40;17.80;99.90
32348;DHT22;18821;44.800;10.326;2022-09-24T11:59:34;17.70;99.90
32348;DHT22;18821;44.800;10.326;2022-09-24T12:07:37;17.80;99.90
32348;DHT22;18821;44.800;10.326;2022-09-24T12:10:33;18.00;99.90
32348;DHT22;18821;44.800;10.326;2022-09-24T12:13:23;18.10;99.90
32348;DHT22;18821;44.800;10.326;2022-09-24T12:16:05;18.20;99.90
32348;DHT22;18821;44.800;10.326;2022-09-24T12:18:37;18.30;99.90
32348;DHT22;18821;44.800;10.326;2022-09-24T12:21:11;18.20;99.90
32348;DHT22;18821;44.800;10.326;2022-09-24T12:23:41;18.20;99.90
32348;DHT22;18821;44.800;10.326;2022-09-24T12:26:08;18.30;99.90
32348;DHT22;18821;44.800;10.326;2022-09-24T12:28:46;18.30;99.90
32348;DHT22;18821;44.800;10.326;2022-09-24T12:31:51;18.30;99.90
32348;DHT22;18821;44.800;10.326;2022-09-24T12:34:53;18.30;99.90
32348;DHT22;18821;44.800;10.326;2022-09-24T12:37:27;18.30;99.90
32348;DHT22;18821;44.800;10.326;2022-09-24T12:40:03;18.20;99.90
32348;DHT22;18821;44.800;10.326;2022-09-24T12:42:41;18.20;99.90
32348;DHT22;18821;44.800;10.326;2022-09-24T12:45:16;18.20;99.90
32348;DHT22;18821;44.800;10.326;2022-09-24T12:48:03;18.10;99.90
32348;DHT22;18821;44.800;10.326;2022-09-24T12:50:32;18.10;99.90
32348;DHT22;18821;44.800;10.326;2022-09-24T12:52:59;18.00;99.90
32348;DHT22;18821;44.800;10.326;2022-09-24T12:55:28;18.00;99.90
32348;DHT22;18821;44.800;10.326;2022-09-24T12:58:04;18.10;99.90
32348;DHT22;18821;44.800;10.326;2022-09-24T13:00:41;18.00;99.90
32348;DHT22;18821;44.800;10.326;2022-09-24T13:05:56;18.10;99.90
32348;DHT22;18821;44.800;10.326;2022-09-24T13:08:36;17.90;99.90
32348;DHT22;18821;44.800;10.326;2022-09-24T13:11:21;17.90;99.90
32348;DHT22;18821;44.800;10.326;2022-09-24T13:14:18;17.80;99.90
32348;DHT22;18821;44.800;10.326;2022-09-24T13:16:46;17.90;99.90
32348;DHT22;18821;44.800;10.326;2022-09-24T13:21:58;17.70;99.90
32348;DHT22;18821;44.800;10.326;2022-09-24T13:24:31;17.60;99.90
32348;DHT22;18821;44.800;10.326;2022-09-24T13:27:21;17.50;99.90
32348;DHT22;18821;44.800;10.326;2022-09-24T13:29:59;17.40;99.90
32348;DHT22;18821;44.800;10.326;2022-09-24T13:32:27;17.50;99.90
32348;DHT22;18821;44.800;10.326;2022-09-24T13:35:03;17.40;99.90
32348;DHT22;18821;44.800;10.326;2022-09-24T13:37:38;17.50;99.90
32348;DHT22;18821;44.800;10.326;2022-09-24T13:40:12;17.40;99.90
32348;DHT22;18821;44.800;10.326;2022-09-24T13:42:55;17.50;99.90
32348;DHT22;18821;44.800;10.326;2022-09-24T13:45:24;17.60;99.90
32348;DHT22;18821;44.800;10.326;2022-09-24T13:47:56;17.60;99.90
32348;DHT22;18821;44.800;10.326;2022-09-24T13:53:16;17.60;99.90
32348;DHT22;18821;44.800;10.326;2022-09-24T13:55:47;17.50;99.90
32348;DHT22;18821;44.800;10.326;2022-09-24T14:01:03;17.10;99.90
32348;DHT22;18821;44.800;10.326;2022-09-24T14:03:30;17.10;99.90
32348;DHT22;18821;44.800;10.326;2022-09-24T14:06:00;17.10;99.90
32348;DHT22;18821;44.800;10.326;2022-09-24T14:08:28;17.10;99.90
32348;DHT22;18821;44.800;10.326;2022-09-24T14:11:20;16.90;99.90
32348;DHT22;18821;44.800;10.326;2022-09-24T14:13:49;16.80;99.90
32348;DHT22;18821;44.800;10.326;2022-09-24T14:16:18;16.60;99.90
32348;DHT22;18821;44.800;10.326;2022-09-24T14:18:45;16.60;99.90
32348;DHT22;18821;44.800;10.326;2022-09-24T14:23:53;16.60;99.90
32348;DHT22;18821;44.800;10.326;2022-09-24T14:26:27;16.70;99.90
32348;DHT22;18821;44.800;10.326;2022-09-24T14:28:55;16.80;99.90
32348;DHT22;18821;44.800;10.326;2022-09-24T14:31:22;16.80;99.90
32348;DHT22;18821;44.800;10.326;2022-09-24T14:33:48;16.90;99.90
32348;DHT22;18821;44.800;10.326;2022-09-24T14:36:15;16.90;99.90
32348;DHT22;18821;44.800;10.326;2022-09-24T14:38:58;16.90;99.90
32348;DHT22;18821;44.800;10.326;2022-09-24T14:41:28;16.90;99.90
32348;DHT22;18821;44.800;10.326;2022-09-24T14:46:32;17.00;99.90
32348;DHT22;18821;44.800;10.326;2022-09-24T14:49:13;17.10;99.90
32348;DHT22;18821;44.800;10.326;2022-09-24T14:51:58;17.20;99.90
32348;DHT22;18821;44.800;10.326;2022-09-24T14:57:06;16.80;99.90
32348;DHT22;18821;44.800;10.326;2022-09-24T14:59:39;16.80;99.90
32348;DHT22;18821;44.800;10.326;2022-09-24T15:02:32;16.80;99.90
32348;DHT22;18821;44.800;10.326;2022-09-24T15:05:01;16.80;99.90
32348;DHT22;18821;44.800;10.326;2022-09-24T15:07:29;16.80;99.90
32348;DHT22;18821;44.800;10.326;2022-09-24T15:09:57;16.80;99.90
32348;DHT22;18821;44.800;10.326;2022-09-24T15:12:32;16.90;99.90
32348;DHT22;18821;44.800;10.326;2022-09-24T15:15:02;16.80;99.90
32348;DHT22;18821;44.800;10.326;2022-09-24T15:17:31;16.80;99.90
32348;DHT22;18821;44.800;10.326;2022-09-24T15:19:57;16.80;99.90
32348;DHT22;18821;44.800;10.326;2022-09-24T15:22:24;16.90;99.90
32348;DHT22;18821;44.800;10.326;2022-09-24T15:24:52;16.90;99.90
32348;DHT22;18821;44.800;10.326;2022-09-24T15:27:30;16.80;99.90
32348;DHT22;18821;44.800;10.326;2022-09-24T15:30:01;16.80;99.90
32348;DHT22;18821;44.800;10.326;2022-09-24T15:32:30;16.90;99.90
32348;DHT22;18821;44.800;10.326;2022-09-24T15:34:58;16.90;99.90
32348;DHT22;18821;44.800;10.326;2022-09-24T15:37:26;17.00;99.90
32348;DHT22;18821;44.800;10.326;2022-09-24T15:39:57;17.10;99.90
32348;DHT22;18821;44.800;10.326;2022-09-24T15:42:25;17.10;99.90
32348;DHT22;18821;44.800;10.326;2022-09-24T15:44:51;17.20;99.90
32348;DHT22;18821;44.800;10.326;2022-09-24T15:47:19;17.20;99.90
32348;DHT22;18821;44.800;10.326;2022-09-24T15:49:45;17.10;99.90
32348;DHT22;18821;44.800;10.326;2022-09-24T15:52:18;17.10;99.90
32348;DHT22;18821;44.800;10.326;2022-09-24T15:54:54;17.10;99.90
32348;DHT22;18821;44.800;10.326;2022-09-24T15:57:20;17.00;99.90
32348;DHT22;18821;44.800;10.326;2022-09-24T15:59:51;16.90;99.90
32348;DHT22;18821;44.800;10.326;2022-09-24T16:02:24;16.80;99.90
32348;DHT22;18821;44.800;10.326;2022-09-24T16:04:51;16.90;99.90
32348;DHT22;18821;44.800;10.326;2022-09-24T16:07:17;17.00;99.90
32348;DHT22;18821;44.800;10.326;2022-09-24T16:09:44;17.00;99.90
32348;DHT22;18821;44.800;10.326;2022-09-24T16:12:14;17.00;99.90
32348;DHT22;18821;44.800;10.326;2022-09-24T16:14:40;17.00;99.90
32348;DHT22;18821;44.800;10.326;2022-09-24T16:17:07;17.00;99.90
32348;DHT22;18821;44.800;10.326;2022-09-24T16:19:33;16.90;99.90
32348;DHT22;18821;44.800;10.326;2022-09-24T16:21:59;16.90;99.90
32348;DHT22;18821;44.800;10.326;2022-09-24T16:24:26;16.90;99.90
32348;DHT22;18821;44.800;10.326;2022-09-24T16:26:52;16.80;99.90
32348;DHT22;18821;44.800;10.326;2022-09-24T16:29:18;16.80;99.90
32348;DHT22;18821;44.800;10.326;2022-09-24T16:31:44;16.80;99.90
32348;DHT22;18821;44.800;10.326;2022-09-24T16:34:11;16.80;99.90
32348;DHT22;18821;44.800;10.326;2022-09-24T16:36:37;16.60;99.90
32348;DHT22;18821;44.800;10.326;2022-09-24T16:39:03;16.60;99.90
32348;DHT22;18821;44.800;10.326;2022-09-24T16:41:29;16.50;99.90
32348;DHT22;18821;44.800;10.326;2022-09-24T16:44:00;16.60;99.90
32348;DHT22;18821;44.800;10.326;2022-09-24T16:46:26;16.60;99.90
32348;DHT22;18821;44.800;10.326;2022-09-24T16:48:52;16.60;99.90
32348;DHT22;18821;44.800;10.326;2022-09-24T16:51:18;16.60;99.90
32348;DHT22;18821;44.800;10.326;2022-09-24T16:53:45;16.60;99.90
32348;DHT22;18821;44.800;10.326;2022-09-24T16:56:13;16.60;99.90
32348;DHT22;18821;44.800;10.326;2022-09-24T16:58:40;16.50;99.90
32348;DHT22;18821;44.800;10.326;2022-09-24T17:01:08;16.40;99.90
32348;DHT22;18821;44.800;10.326;2022-09-24T17:03:34;16.30;99.90
32348;DHT22;18821;44.800;10.326;2022-09-24T17:06:01;16.30;99.90
32348;DHT22;18821;44.800;10.326;2022-09-24T17:08:29;16.20;99.90
32348;DHT22;18821;44.800;10.326;2022-09-24T17:11:13;16.10;99.90
32348;DHT22;18821;44.800;10.326;2022-09-24T17:13:39;16.10;99.90
32348;DHT22;18821;44.800;10.326;2022-09-24T17:16:05;15.90;99.90
32348;DHT22;18821;44.800;10.326;2022-09-24T17:18:32;15.80;99.90
32348;DHT22;18821;44.800;10.326;2022-09-24T17:21:05;15.80;99.90
32348;DHT22;18821;44.800;10.326;2022-09-24T17:23:32;15.70;99.90
32348;DHT22;18821;44.800;10.326;2022-09-24T17:28:31;15.60;99.90
32348;DHT22;18821;44.800;10.326;2022-09-24T17:30:57;15.60;99.90
32348;DHT22;18821;44.800;10.326;2022-09-24T17:33:23;15.60;99.90
32348;DHT22;18821;44.800;10.326;2022-09-24T17:35:57;15.60;99.90
32348;DHT22;18821;44.800;10.326;2022-09-24T17:38:23;15.70;99.90
32348;DHT22;18821;44.800;10.326;2022-09-24T17:40:57;15.60;99.90